KJAN/JAN METAR and TAF weather

Enter ICAO airport designator
Station Type Date Time Source
KJAN METAR 2019/06/16 20:54 UTC NOAA

KJAN 162054Z 20010KT 10SM FEW060 SCT200 32/18 A2993 RMK AO2 LTG DSNT SW AND NW SLP129 T03220183 58015


Station Type Date Time Source
KJAN Decoded METAR 2019/06/16 20:54 UTC NOAA

Jackson, Jackson International Airport, MS, United States (KJAN) 32-19-11N 090-04-39W 89M
Jun 16, 2019 - 04:54 PM EDT / 2019.06.16 2054 UTC
Wind: from the SSW (200 degrees) at 12 MPH (10 KT):0
Visibility: 10 mile(s):0
Sky conditions: partly cloudy
Weather: Lightning observed
Temperature: 90.0 F (32.2 C)
Dew Point: 64.9 F (18.3 C)
Relative Humidity: 43%
Pressure (altimeter): 29.93 in. Hg (1013 hPa)
Pressure tendency: 0.04 inches (1.5 hPa) lower than three hours ago
ob: KJAN 162054Z 20010KT 10SM FEW060 SCT200 32/18 A2993 RMK AO2 LTG DSNT SW AND NW SLP129 T03220183 58015
cycle: 21

Station Type Date Time Source
KJAN TAF 2019/06/16 18:33 UTC NOAA

TAF KJAN 161730Z 1618/1718 19009KT P6SM BKN050
FM162030 21010G20KT P6SM VCTS BKN040CB
FM170000 16005KT P6SM OVC100

Example: see airport list